• Join FlightAware (Why Join?)
  • Login
  • US Flag 
04:20AM EDT


 

Airport Tracker/Info


-or-


 

Live Flight TrackerFlight Track Log ✈ ASQ4209 ✈ 20-Jul-2013 ✈ KIAH - KBTR

Flight Track Log - Related Links

Times and Time Zones

All times are in EDT time to prevent confusion due to time zone crossing. See the ASQ4209 flight status page for this flight to view local times or setup timezone preferences in your user account.

Time Position Orientation Groundspeed Altitude Reporting Facility
EDT Latitude Longitude Course Direction KTS MPH feet Rate Location/Type
05:04PM 29.9594 -95.3414 90° East 164 189 900  Level Houston Center
05:04PM 29.9333 -95.3083 132° Southeast 199 229 2,500 1,740 Climbing Houston Center
05:05PM 29.8811 -95.2667 145° Southeast 250 288 4,000 2,400 Climbing Houston Center
05:06PM 29.8192 -95.2331 155° Southeast 231 266 7,500 3,000 Climbing Houston Center
05:07PM 29.9834 -94.8853 90° East  Level FlightAware Approximate
05:07PM 29.7944 -95.1686 114° Southeast 230 265 10,200  Level Houston Center
05:08PM 29.9834 -94.7733 90° East  Level FlightAware Approximate
05:09PM 29.9833 -94.6613 90° East  Level FlightAware Approximate
05:09PM 29.7597 -95.0722 113° Southeast 247 284 13,100  Level Houston Center
05:10PM 29.7564 -94.9869 93° East 270 311 15,000 1,380 Climbing Houston Center
05:11PM 29.7572 -94.8950 89° East 286 329 16,000 780 Climbing Houston Center
05:12PM 29.7658 -94.7828 85° East 350 403 16,600 600 Climbing Houston Center
05:13PM 29.7900 -94.6647 77° East 380 437 17,300 960 Climbing Houston Center
05:14PM 29.8186 -94.5436 75° East 392 451 18,600 960 Climbing Houston Center
05:15PM 29.8458 -94.4200 76° East 398 458 19,300 960 Climbing Houston Center
05:16PM 29.8794 -94.2689 76° East 406 467 20,700 1,020 Climbing Houston Center
05:17PM 29.9044 -94.1581 75° East 407 468 21,500 900 Climbing Houston Center
05:18PM 29.9328 -94.0325 75° East 407 468 22,600 720 Climbing Houston Center
05:19PM 29.9661 -93.8781 76° East 418 481 23,000 180 Climbing Houston Center
05:20PM 29.9961 -93.7428 76° East 437 503 23,000  Level Houston Center
05:21PM 30.0256 -93.6058 76° East 442 509 23,000  Level Houston Center
05:22PM 30.0558 -93.4678 76° East 449 517 23,000  Level Houston Center
05:23PM 30.0869 -93.3294 75° East 453 521 23,000  Level Houston Center
05:24PM 30.1269 -93.1633 74° East 455 524 23,000  Level Houston Center
05:25PM 30.1619 -93.0231 74° East 458 527 23,000  Level Houston Center
05:26PM 30.1953 -92.8831 75° East 456 525 23,000  Level Houston Center
05:27PM 30.2286 -92.7419 75° East 458 527 23,000  Level Houston Center
05:28PM 30.2633 -92.6006 74° East 459 528 23,000  Level Houston Center
05:29PM 30.2922 -92.4567 77° East 463 533 23,000 -960 Level Houston Center
05:30PM 30.3197 -92.3064 78° East 454 522 21,100 -2,160 Descending Houston Center
05:31PM 30.3456 -92.1697 78° East 443 510 18,600 -2,580 Descending Houston Center
05:32PM 30.3747 -92.0136 78° East 420 483 15,900 -2,700 Descending Houston Center
05:33PM 30.3956 -91.8992 78° East 378 435 13,100 -2,400 Descending Houston Center
05:35PM 30.4175 -91.7914 77° East 351 404 11,100 -1,920 Descending Houston Center
05:36PM 30.4328 -91.7000 79° East 299 344 9,200 -1,860 Descending Houston Center
05:37PM 30.4511 -91.6108 77° East 287 330 7,300 -1,860 Descending Houston Center
05:38PM 30.4669 -91.5233 78° East 280 322 5,400 -1,560 Descending Houston Center
05:39PM 30.4928 -91.4464 69° East 267 307 4,200 -840 Descending Houston Center
05:40PM 30.5317 -91.3692 60° Northeast 271 312 3,700 -480 Descending Houston Center
05:41PM 30.5758 -91.2811 60° Northeast 268 308 3,300 -420 Descending Houston Center